sensor_id;sensor_type;location;lat;lon;timestamp;P1;durP1;ratioP1;P2;durP2;ratioP2
11982;SDS011;72623;51.184;7.176;2023-11-21T00:00:37;24.10;;;10.60;;
11982;SDS011;72623;51.184;7.176;2023-11-21T00:03:03;21.03;;;13.23;;
11982;SDS011;72623;51.184;7.176;2023-11-21T00:05:31;22.33;;;12.63;;
11982;SDS011;72623;51.184;7.176;2023-11-21T00:07:58;26.43;;;12.87;;
11982;SDS011;72623;51.184;7.176;2023-11-21T00:10:24;27.37;;;13.47;;
11982;SDS011;72623;51.184;7.176;2023-11-21T00:12:51;19.97;;;12.13;;
11982;SDS011;72623;51.184;7.176;2023-11-21T00:15:20;20.80;;;13.33;;
11982;SDS011;72623;51.184;7.176;2023-11-21T00:17:46;30.30;;;12.47;;
11982;SDS011;72623;51.184;7.176;2023-11-21T00:20:13;21.90;;;11.43;;
11982;SDS011;72623;51.184;7.176;2023-11-21T00:22:40;23.97;;;12.17;;
11982;SDS011;72623;51.184;7.176;2023-11-21T00:25:06;22.97;;;12.33;;
11982;SDS011;72623;51.184;7.176;2023-11-21T00:27:34;27.23;;;14.70;;
11982;SDS011;72623;51.184;7.176;2023-11-21T00:30:02;27.17;;;14.37;;
11982;SDS011;72623;51.184;7.176;2023-11-21T00:32:30;25.93;;;13.67;;
11982;SDS011;72623;51.184;7.176;2023-11-21T00:34:57;22.07;;;12.87;;
11982;SDS011;72623;51.184;7.176;2023-11-21T00:37:24;23.83;;;13.10;;
11982;SDS011;72623;51.184;7.176;2023-11-21T00:39:51;17.67;;;12.20;;
11982;SDS011;72623;51.184;7.176;2023-11-21T00:42:17;20.30;;;11.97;;
11982;SDS011;72623;51.184;7.176;2023-11-21T00:44:44;24.50;;;13.00;;
11982;SDS011;72623;51.184;7.176;2023-11-21T00:47:11;21.80;;;11.87;;
11982;SDS011;72623;51.184;7.176;2023-11-21T00:49:37;24.00;;;11.77;;
11982;SDS011;72623;51.184;7.176;2023-11-21T00:52:04;21.93;;;11.13;;
11982;SDS011;72623;51.184;7.176;2023-11-21T00:54:32;17.80;;;10.37;;
11982;SDS011;72623;51.184;7.176;2023-11-21T00:56:58;18.77;;;10.80;;
11982;SDS011;72623;51.184;7.176;2023-11-21T00:59:25;19.60;;;11.93;;
11982;SDS011;72623;51.184;7.176;2023-11-21T01:01:52;20.03;;;11.80;;
11982;SDS011;72623;51.184;7.176;2023-11-21T01:04:19;22.20;;;12.57;;
11982;SDS011;72623;51.184;7.176;2023-11-21T01:06:45;22.47;;;13.23;;
11982;SDS011;72623;51.184;7.176;2023-11-21T01:09:12;21.40;;;13.47;;
11982;SDS011;72623;51.184;7.176;2023-11-21T01:11:39;19.90;;;12.23;;
11982;SDS011;72623;51.184;7.176;2023-11-21T01:14:08;32.97;;;14.27;;
11982;SDS011;72623;51.184;7.176;2023-11-21T01:16:35;21.80;;;13.03;;
11982;SDS011;72623;51.184;7.176;2023-11-21T01:19:02;27.07;;;14.93;;
11982;SDS011;72623;51.184;7.176;2023-11-21T01:21:29;19.60;;;12.33;;
11982;SDS011;72623;51.184;7.176;2023-11-21T01:23:56;26.17;;;13.07;;
11982;SDS011;72623;51.184;7.176;2023-11-21T01:26:23;20.30;;;12.83;;
11982;SDS011;72623;51.184;7.176;2023-11-21T01:28:49;18.73;;;11.47;;
11982;SDS011;72623;51.184;7.176;2023-11-21T01:31:16;20.87;;;12.57;;
11982;SDS011;72623;51.184;7.176;2023-11-21T01:33:43;25.40;;;12.40;;
11982;SDS011;72623;51.184;7.176;2023-11-21T01:36:10;23.13;;;12.57;;
11982;SDS011;72623;51.184;7.176;2023-11-21T01:38:36;28.83;;;13.97;;
11982;SDS011;72623;51.184;7.176;2023-11-21T01:41:04;23.13;;;13.57;;
11982;SDS011;72623;51.184;7.176;2023-11-21T01:43:31;22.97;;;13.60;;
11982;SDS011;72623;51.184;7.176;2023-11-21T01:45:58;25.90;;;13.37;;
11982;SDS011;72623;51.184;7.176;2023-11-21T01:48:25;23.03;;;13.40;;
11982;SDS011;72623;51.184;7.176;2023-11-21T01:50:53;20.57;;;11.63;;
11982;SDS011;72623;51.184;7.176;2023-11-21T01:53:20;22.17;;;11.53;;
11982;SDS011;72623;51.184;7.176;2023-11-21T01:55:47;22.67;;;12.33;;
11982;SDS011;72623;51.184;7.176;2023-11-21T01:58:14;27.10;;;12.43;;
11982;SDS011;72623;51.184;7.176;2023-11-21T02:00:41;23.60;;;12.33;;
11982;SDS011;72623;51.184;7.176;2023-11-21T02:03:08;22.90;;;12.67;;
11982;SDS011;72623;51.184;7.176;2023-11-21T02:05:35;20.30;;;11.97;;
11982;SDS011;72623;51.184;7.176;2023-11-21T02:08:02;20.80;;;11.87;;
11982;SDS011;72623;51.184;7.176;2023-11-21T02:10:30;22.30;;;11.70;;
11982;SDS011;72623;51.184;7.176;2023-11-21T02:12:57;18.90;;;11.73;;
11982;SDS011;72623;51.184;7.176;2023-11-21T02:15:25;20.90;;;11.73;;
11982;SDS011;72623;51.184;7.176;2023-11-21T02:17:54;23.43;;;12.30;;
11982;SDS011;72623;51.184;7.176;2023-11-21T02:20:23;21.57;;;11.87;;
11982;SDS011;72623;51.184;7.176;2023-11-21T02:22:51;20.60;;;11.70;;
11982;SDS011;72623;51.184;7.176;2023-11-21T02:25:22;22.40;;;11.23;;
11982;SDS011;72623;51.184;7.176;2023-11-21T02:27:56;22.10;;;12.00;;
11982;SDS011;72623;51.184;7.176;2023-11-21T02:30:25;22.87;;;11.27;;
11982;SDS011;72623;51.184;7.176;2023-11-21T02:32:52;17.93;;;11.80;;
11982;SDS011;72623;51.184;7.176;2023-11-21T02:35:21;20.03;;;11.77;;
11982;SDS011;72623;51.184;7.176;2023-11-21T02:37:48;22.60;;;11.23;;
11982;SDS011;72623;51.184;7.176;2023-11-21T02:40:15;19.57;;;11.93;;
11982;SDS011;72623;51.184;7.176;2023-11-21T02:42:46;23.47;;;11.23;;
11982;SDS011;72623;51.184;7.176;2023-11-21T02:45:14;19.00;;;12.07;;
11982;SDS011;72623;51.184;7.176;2023-11-21T02:47:42;21.73;;;12.03;;
11982;SDS011;72623;51.184;7.176;2023-11-21T02:50:09;20.23;;;11.50;;
11982;SDS011;72623;51.184;7.176;2023-11-21T02:52:37;25.30;;;12.00;;
11982;SDS011;72623;51.184;7.176;2023-11-21T02:55:05;19.67;;;11.73;;
11982;SDS011;72623;51.184;7.176;2023-11-21T02:57:32;18.23;;;11.10;;
11982;SDS011;72623;51.184;7.176;2023-11-21T02:59:59;18.27;;;11.43;;
11982;SDS011;72623;51.184;7.176;2023-11-21T03:02:26;24.77;;;11.93;;
11982;SDS011;72623;51.184;7.176;2023-11-21T03:04:52;20.80;;;11.60;;
11982;SDS011;72623;51.184;7.176;2023-11-21T03:07:19;18.47;;;10.90;;
11982;SDS011;72623;51.184;7.176;2023-11-21T03:09:46;22.43;;;12.90;;
11982;SDS011;72623;51.184;7.176;2023-11-21T03:12:13;21.13;;;11.47;;
11982;SDS011;72623;51.184;7.176;2023-11-21T03:14:40;18.40;;;11.17;;
11982;SDS011;72623;51.184;7.176;2023-11-21T03:17:07;18.53;;;11.17;;
11982;SDS011;72623;51.184;7.176;2023-11-21T03:19:34;17.53;;;10.63;;
11982;SDS011;72623;51.184;7.176;2023-11-21T03:22:00;21.17;;;12.23;;
11982;SDS011;72623;51.184;7.176;2023-11-21T03:24:27;31.17;;;13.50;;
11982;SDS011;72623;51.184;7.176;2023-11-21T03:26:54;27.30;;;12.60;;
11982;SDS011;72623;51.184;7.176;2023-11-21T03:29:21;27.10;;;13.50;;
11982;SDS011;72623;51.184;7.176;2023-11-21T03:31:47;25.43;;;12.37;;
11982;SDS011;72623;51.184;7.176;2023-11-21T03:34:15;24.37;;;12.53;;
11982;SDS011;72623;51.184;7.176;2023-11-21T03:36:49;26.23;;;13.13;;
11982;SDS011;72623;51.184;7.176;2023-11-21T03:39:16;27.23;;;14.00;;
11982;SDS011;72623;51.184;7.176;2023-11-21T03:41:43;30.07;;;13.63;;
11982;SDS011;72623;51.184;7.176;2023-11-21T03:44:10;25.47;;;13.00;;
11982;SDS011;72623;51.184;7.176;2023-11-21T03:46:36;31.97;;;13.63;;
11982;SDS011;72623;51.184;7.176;2023-11-21T03:49:03;32.13;;;14.70;;
11982;SDS011;72623;51.184;7.176;2023-11-21T03:51:29;29.03;;;13.33;;
11982;SDS011;72623;51.184;7.176;2023-11-21T03:53:56;29.43;;;14.27;;
11982;SDS011;72623;51.184;7.176;2023-11-21T03:56:23;36.87;;;14.57;;
11982;SDS011;72623;51.184;7.176;2023-11-21T03:58:49;33.17;;;14.33;;
11982;SDS011;72623;51.184;7.176;2023-11-21T04:01:22;35.10;;;15.03;;
11982;SDS011;72623;51.184;7.176;2023-11-21T04:03:49;37.00;;;14.70;;
11982;SDS011;72623;51.184;7.176;2023-11-21T04:06:16;32.07;;;15.03;;
11982;SDS011;72623;51.184;7.176;2023-11-21T04:08:44;30.33;;;13.00;;
11982;SDS011;72623;51.184;7.176;2023-11-21T04:11:11;40.90;;;14.70;;
11982;SDS011;72623;51.184;7.176;2023-11-21T04:13:38;32.23;;;15.00;;
11982;SDS011;72623;51.184;7.176;2023-11-21T04:16:06;36.73;;;15.33;;
11982;SDS011;72623;51.184;7.176;2023-11-21T04:18:36;37.00;;;14.60;;
11982;SDS011;72623;51.184;7.176;2023-11-21T04:21:11;39.30;;;14.97;;
11982;SDS011;72623;51.184;7.176;2023-11-21T04:23:38;38.03;;;13.73;;
11982;SDS011;72623;51.184;7.176;2023-11-21T04:26:05;34.10;;;14.80;;
11982;SDS011;72623;51.184;7.176;2023-11-21T04:28:32;34.87;;;14.17;;
11982;SDS011;72623;51.184;7.176;2023-11-21T04:30:58;40.47;;;15.03;;
11982;SDS011;72623;51.184;7.176;2023-11-21T04:33:25;41.67;;;14.87;;
11982;SDS011;72623;51.184;7.176;2023-11-21T04:35:52;37.73;;;15.43;;
11982;SDS011;72623;51.184;7.176;2023-11-21T04:38:18;39.03;;;15.50;;
11982;SDS011;72623;51.184;7.176;2023-11-21T04:40:45;35.50;;;14.60;;
11982;SDS011;72623;51.184;7.176;2023-11-21T04:43:11;36.20;;;14.73;;
11982;SDS011;72623;51.184;7.176;2023-11-21T04:45:38;34.07;;;15.17;;
11982;SDS011;72623;51.184;7.176;2023-11-21T04:48:06;35.73;;;13.47;;
11982;SDS011;72623;51.184;7.176;2023-11-21T04:50:33;32.43;;;13.10;;
11982;SDS011;72623;51.184;7.176;2023-11-21T04:53:00;32.03;;;14.93;;
11982;SDS011;72623;51.184;7.176;2023-11-21T04:55:27;31.60;;;13.87;;
11982;SDS011;72623;51.184;7.176;2023-11-21T04:57:54;32.03;;;14.40;;
11982;SDS011;72623;51.184;7.176;2023-11-21T05:00:20;21.53;;;11.90;;
11982;SDS011;72623;51.184;7.176;2023-11-21T05:02:47;25.53;;;11.53;;
11982;SDS011;72623;51.184;7.176;2023-11-21T05:05:14;20.97;;;11.20;;
11982;SDS011;72623;51.184;7.176;2023-11-21T05:07:41;23.67;;;11.63;;
11982;SDS011;72623;51.184;7.176;2023-11-21T05:10:08;24.23;;;11.47;;
11982;SDS011;72623;51.184;7.176;2023-11-21T05:12:37;25.17;;;11.60;;
11982;SDS011;72623;51.184;7.176;2023-11-21T05:15:04;26.53;;;11.73;;
11982;SDS011;72623;51.184;7.176;2023-11-21T05:17:34;27.03;;;12.73;;
11982;SDS011;72623;51.184;7.176;2023-11-21T05:20:01;26.17;;;12.17;;
11982;SDS011;72623;51.184;7.176;2023-11-21T05:22:33;28.13;;;13.17;;
11982;SDS011;72623;51.184;7.176;2023-11-21T05:25:00;27.93;;;11.97;;
11982;SDS011;72623;51.184;7.176;2023-11-21T05:27:29;29.23;;;11.33;;
11982;SDS011;72623;51.184;7.176;2023-11-21T05:30:03;28.27;;;13.27;;
11982;SDS011;72623;51.184;7.176;2023-11-21T05:32:32;29.37;;;12.90;;
11982;SDS011;72623;51.184;7.176;2023-11-21T05:34:59;33.23;;;12.23;;
11982;SDS011;72623;51.184;7.176;2023-11-21T05:37:25;24.07;;;12.23;;
11982;SDS011;72623;51.184;7.176;2023-11-21T05:39:53;28.80;;;11.77;;
11982;SDS011;72623;51.184;7.176;2023-11-21T05:42:21;24.53;;;11.70;;
11982;SDS011;72623;51.184;7.176;2023-11-21T05:44:48;24.10;;;12.07;;
11982;SDS011;72623;51.184;7.176;2023-11-21T05:47:15;29.73;;;11.77;;
11982;SDS011;72623;51.184;7.176;2023-11-21T05:49:42;26.50;;;11.87;;
11982;SDS011;72623;51.184;7.176;2023-11-21T05:52:10;32.07;;;12.50;;
11982;SDS011;72623;51.184;7.176;2023-11-21T05:54:36;34.43;;;12.00;;
11982;SDS011;72623;51.184;7.176;2023-11-21T05:57:03;25.60;;;11.87;;
11982;SDS011;72623;51.184;7.176;2023-11-21T05:59:30;26.70;;;10.97;;
11982;SDS011;72623;51.184;7.176;2023-11-21T06:01:57;28.73;;;11.97;;
11982;SDS011;72623;51.184;7.176;2023-11-21T06:04:23;27.20;;;12.37;;
11982;SDS011;72623;51.184;7.176;2023-11-21T06:06:51;25.60;;;13.80;;
11982;SDS011;72623;51.184;7.176;2023-11-21T06:09:18;24.30;;;11.33;;
11982;SDS011;72623;51.184;7.176;2023-11-21T06:11:45;28.57;;;12.07;;
11982;SDS011;72623;51.184;7.176;2023-11-21T06:14:12;27.83;;;11.83;;
11982;SDS011;72623;51.184;7.176;2023-11-21T06:16:40;22.83;;;10.97;;
11982;SDS011;72623;51.184;7.176;2023-11-21T06:19:06;25.10;;;10.83;;
11982;SDS011;72623;51.184;7.176;2023-11-21T06:21:33;20.40;;;10.93;;
11982;SDS011;72623;51.184;7.176;2023-11-21T06:24:00;25.00;;;11.07;;
11982;SDS011;72623;51.184;7.176;2023-11-21T06:26:27;25.93;;;12.43;;
11982;SDS011;72623;51.184;7.176;2023-11-21T06:28:53;27.43;;;12.63;;
11982;SDS011;72623;51.184;7.176;2023-11-21T06:31:20;37.00;;;14.30;;
11982;SDS011;72623;51.184;7.176;2023-11-21T06:33:47;25.77;;;13.30;;
11982;SDS011;72623;51.184;7.176;2023-11-21T06:36:16;32.17;;;13.70;;
11982;SDS011;72623;51.184;7.176;2023-11-21T06:38:43;37.67;;;14.00;;
11982;SDS011;72623;51.184;7.176;2023-11-21T06:41:10;31.30;;;13.43;;
11982;SDS011;72623;51.184;7.176;2023-11-21T06:43:40;31.80;;;12.83;;
11982;SDS011;72623;51.184;7.176;2023-11-21T06:46:06;31.27;;;13.90;;
11982;SDS011;72623;51.184;7.176;2023-11-21T06:48:33;25.40;;;13.00;;
11982;SDS011;72623;51.184;7.176;2023-11-21T06:51:00;32.80;;;14.77;;
11982;SDS011;72623;51.184;7.176;2023-11-21T06:53:26;33.47;;;15.47;;
11982;SDS011;72623;51.184;7.176;2023-11-21T06:55:53;30.30;;;13.80;;
11982;SDS011;72623;51.184;7.176;2023-11-21T06:58:20;33.07;;;14.73;;
11982;SDS011;72623;51.184;7.176;2023-11-21T07:00:46;25.33;;;12.47;;
11982;SDS011;72623;51.184;7.176;2023-11-21T07:03:15;29.17;;;12.67;;
11982;SDS011;72623;51.184;7.176;2023-11-21T07:05:44;24.73;;;12.27;;
11982;SDS011;72623;51.184;7.176;2023-11-21T07:08:11;34.67;;;13.43;;
11982;SDS011;72623;51.184;7.176;2023-11-21T07:10:37;23.47;;;12.30;;
11982;SDS011;72623;51.184;7.176;2023-11-21T07:13:04;29.33;;;12.43;;
11982;SDS011;72623;51.184;7.176;2023-11-21T07:15:33;28.53;;;13.00;;
11982;SDS011;72623;51.184;7.176;2023-11-21T07:18:00;30.70;;;13.63;;
11982;SDS011;72623;51.184;7.176;2023-11-21T07:20:27;26.83;;;12.40;;
11982;SDS011;72623;51.184;7.176;2023-11-21T07:22:55;29.10;;;12.87;;
11982;SDS011;72623;51.184;7.176;2023-11-21T07:25:22;27.33;;;12.40;;
11982;SDS011;72623;51.184;7.176;2023-11-21T07:27:49;27.90;;;12.37;;
11982;SDS011;72623;51.184;7.176;2023-11-21T07:30:16;28.47;;;13.27;;
11982;SDS011;72623;51.184;7.176;2023-11-21T07:32:42;31.50;;;12.80;;
11982;SDS011;72623;51.184;7.176;2023-11-21T07:35:11;30.10;;;14.23;;
11982;SDS011;72623;51.184;7.176;2023-11-21T07:37:37;36.00;;;13.70;;
11982;SDS011;72623;51.184;7.176;2023-11-21T07:40:03;33.83;;;13.63;;
11982;SDS011;72623;51.184;7.176;2023-11-21T07:42:30;27.27;;;13.27;;
11982;SDS011;72623;51.184;7.176;2023-11-21T07:44:58;30.73;;;13.63;;
11982;SDS011;72623;51.184;7.176;2023-11-21T07:47:24;30.07;;;13.93;;
11982;SDS011;72623;51.184;7.176;2023-11-21T07:49:52;30.20;;;13.57;;
11982;SDS011;72623;51.184;7.176;2023-11-21T07:52:20;25.03;;;12.17;;
11982;SDS011;72623;51.184;7.176;2023-11-21T07:54:49;25.83;;;12.07;;
11982;SDS011;72623;51.184;7.176;2023-11-21T07:57:15;27.43;;;13.20;;
11982;SDS011;72623;51.184;7.176;2023-11-21T07:59:42;26.07;;;11.57;;
11982;SDS011;72623;51.184;7.176;2023-11-21T08:02:09;27.93;;;11.80;;
11982;SDS011;72623;51.184;7.176;2023-11-21T08:04:36;23.87;;;10.83;;
11982;SDS011;72623;51.184;7.176;2023-11-21T08:07:02;19.73;;;11.63;;
11982;SDS011;72623;51.184;7.176;2023-11-21T08:09:29;20.77;;;11.33;;
11982;SDS011;72623;51.184;7.176;2023-11-21T08:11:56;25.57;;;11.53;;
11982;SDS011;72623;51.184;7.176;2023-11-21T08:14:23;22.73;;;12.60;;
11982;SDS011;72623;51.184;7.176;2023-11-21T08:16:50;25.27;;;12.20;;
11982;SDS011;72623;51.184;7.176;2023-11-21T08:19:17;26.73;;;12.27;;
11982;SDS011;72623;51.184;7.176;2023-11-21T08:21:44;28.13;;;12.40;;
11982;SDS011;72623;51.184;7.176;2023-11-21T08:24:10;23.77;;;11.63;;
11982;SDS011;72623;51.184;7.176;2023-11-21T08:26:37;30.17;;;12.80;;
11982;SDS011;72623;51.184;7.176;2023-11-21T08:29:04;33.77;;;14.73;;
11982;SDS011;72623;51.184;7.176;2023-11-21T08:31:31;37.80;;;15.67;;
11982;SDS011;72623;51.184;7.176;2023-11-21T08:33:58;47.50;;;16.20;;
11982;SDS011;72623;51.184;7.176;2023-11-21T08:36:27;43.43;;;16.77;;
11982;SDS011;72623;51.184;7.176;2023-11-21T08:38:56;39.73;;;16.37;;
11982;SDS011;72623;51.184;7.176;2023-11-21T08:41:23;51.83;;;17.13;;
11982;SDS011;72623;51.184;7.176;2023-11-21T08:43:50;43.13;;;15.90;;
11982;SDS011;72623;51.184;7.176;2023-11-21T08:46:17;38.47;;;15.77;;
11982;SDS011;72623;51.184;7.176;2023-11-21T08:48:44;39.23;;;15.97;;
11982;SDS011;72623;51.184;7.176;2023-11-21T08:51:11;37.93;;;15.97;;
11982;SDS011;72623;51.184;7.176;2023-11-21T08:53:38;37.27;;;17.43;;
11982;SDS011;72623;51.184;7.176;2023-11-21T08:56:05;44.73;;;16.33;;
11982;SDS011;72623;51.184;7.176;2023-11-21T08:58:34;52.83;;;22.30;;
11982;SDS011;72623;51.184;7.176;2023-11-21T09:01:01;39.30;;;17.70;;
11982;SDS011;72623;51.184;7.176;2023-11-21T09:03:28;43.43;;;17.90;;
11982;SDS011;72623;51.184;7.176;2023-11-21T09:05:56;38.80;;;16.17;;
11982;SDS011;72623;51.184;7.176;2023-11-21T09:08:25;39.23;;;16.70;;
11982;SDS011;72623;51.184;7.176;2023-11-21T09:10:53;48.00;;;17.07;;
11982;SDS011;72623;51.184;7.176;2023-11-21T09:13:20;41.13;;;17.07;;
11982;SDS011;72623;51.184;7.176;2023-11-21T09:15:46;47.23;;;16.80;;
11982;SDS011;72623;51.184;7.176;2023-11-21T09:18:14;44.90;;;16.67;;
11982;SDS011;72623;51.184;7.176;2023-11-21T09:20:42;41.83;;;16.60;;
11982;SDS011;72623;51.184;7.176;2023-11-21T09:23:09;50.57;;;16.90;;
11982;SDS011;72623;51.184;7.176;2023-11-21T09:25:35;53.87;;;16.87;;
11982;SDS011;72623;51.184;7.176;2023-11-21T09:28:03;55.53;;;17.33;;
11982;SDS011;72623;51.184;7.176;2023-11-21T09:33:34;51.43;;;17.40;;
11982;SDS011;72623;51.184;7.176;2023-11-21T09:36:00;40.07;;;16.23;;
11982;SDS011;72623;51.184;7.176;2023-11-21T09:38:29;48.30;;;16.93;;
11982;SDS011;72623;51.184;7.176;2023-11-21T09:40:56;48.43;;;17.97;;
11982;SDS011;72623;51.184;7.176;2023-11-21T09:43:24;45.08;;;17.58;;
11982;SDS011;72623;51.184;7.176;2023-11-21T09:45:58;50.00;;;17.10;;
11982;SDS011;72623;51.184;7.176;2023-11-21T09:48:28;46.20;;;17.33;;
11982;SDS011;72623;51.184;7.176;2023-11-21T09:50:57;44.90;;;18.40;;
11982;SDS011;72623;51.184;7.176;2023-11-21T09:53:25;58.60;;;19.07;;
11982;SDS011;72623;51.184;7.176;2023-11-21T09:55:56;43.77;;;17.33;;
11982;SDS011;72623;51.184;7.176;2023-11-21T09:58:25;52.00;;;18.77;;
11982;SDS011;72623;51.184;7.176;2023-11-21T10:00:53;51.27;;;19.43;;
11982;SDS011;72623;51.184;7.176;2023-11-21T10:03:21;47.90;;;18.13;;
11982;SDS011;72623;51.184;7.176;2023-11-21T10:05:48;46.77;;;17.27;;
11982;SDS011;72623;51.184;7.176;2023-11-21T10:08:17;46.83;;;17.27;;
11982;SDS011;72623;51.184;7.176;2023-11-21T10:10:49;52.67;;;18.23;;
11982;SDS011;72623;51.184;7.176;2023-11-21T10:13:19;48.40;;;18.87;;
11982;SDS011;72623;51.184;7.176;2023-11-21T10:15:50;43.27;;;18.20;;
11982;SDS011;72623;51.184;7.176;2023-11-21T10:18:18;50.20;;;19.40;;
11982;SDS011;72623;51.184;7.176;2023-11-21T10:20:47;47.83;;;18.20;;
11982;SDS011;72623;51.184;7.176;2023-11-21T10:23:20;57.78;;;22.80;;
11982;SDS011;72623;51.184;7.176;2023-11-21T10:25:48;42.10;;;18.70;;
11982;SDS011;72623;51.184;7.176;2023-11-21T10:28:16;42.67;;;18.10;;
11982;SDS011;72623;51.184;7.176;2023-11-21T10:30:44;46.27;;;17.07;;
11982;SDS011;72623;51.184;7.176;2023-11-21T10:33:10;40.47;;;15.80;;
11982;SDS011;72623;51.184;7.176;2023-11-21T10:35:45;38.27;;;15.97;;
11982;SDS011;72623;51.184;7.176;2023-11-21T10:38:16;35.37;;;13.87;;
11982;SDS011;72623;51.184;7.176;2023-11-21T10:40:49;25.67;;;11.07;;
11982;SDS011;72623;51.184;7.176;2023-11-21T10:43:16;32.20;;;12.03;;
11982;SDS011;72623;51.184;7.176;2023-11-21T10:45:43;28.87;;;11.90;;
11982;SDS011;72623;51.184;7.176;2023-11-21T10:48:12;28.60;;;11.10;;
11982;SDS011;72623;51.184;7.176;2023-11-21T10:50:41;24.80;;;10.23;;
11982;SDS011;72623;51.184;7.176;2023-11-21T10:53:09;22.87;;;10.47;;
11982;SDS011;72623;51.184;7.176;2023-11-21T10:55:37;25.10;;;11.17;;
11982;SDS011;72623;51.184;7.176;2023-11-21T10:58:03;24.67;;;11.30;;
11982;SDS011;72623;51.184;7.176;2023-11-21T11:00:34;23.50;;;10.87;;
11982;SDS011;72623;51.184;7.176;2023-11-21T11:03:00;28.80;;;11.83;;
11982;SDS011;72623;51.184;7.176;2023-11-21T11:05:29;19.50;;;10.13;;
11982;SDS011;72623;51.184;7.176;2023-11-21T11:08:04;25.10;;;10.93;;
11982;SDS011;72623;51.184;7.176;2023-11-21T11:10:32;19.50;;;10.70;;
11982;SDS011;72623;51.184;7.176;2023-11-21T11:12:59;18.53;;;9.60;;
11982;SDS011;72623;51.184;7.176;2023-11-21T11:15:26;19.97;;;9.40;;
11982;SDS011;72623;51.184;7.176;2023-11-21T11:17:54;24.43;;;10.73;;
11982;SDS011;72623;51.184;7.176;2023-11-21T11:20:22;23.23;;;10.10;;
11982;SDS011;72623;51.184;7.176;2023-11-21T11:28:26;24.23;;;10.20;;
11982;SDS011;72623;51.184;7.176;2023-11-21T11:31:14;19.23;;;8.53;;
11982;SDS011;72623;51.184;7.176;2023-11-21T11:33:53;21.60;;;9.40;;
11982;SDS011;72623;51.184;7.176;2023-11-21T11:42:13;24.43;;;9.90;;
11982;SDS011;72623;51.184;7.176;2023-11-21T11:47:13;25.53;;;11.73;;
11982;SDS011;72623;51.184;7.176;2023-11-21T11:52:41;17.43;;;8.27;;
11982;SDS011;72623;51.184;7.176;2023-11-21T11:55:10;19.47;;;7.60;;
11982;SDS011;72623;51.184;7.176;2023-11-21T11:57:38;22.20;;;8.60;;
11982;SDS011;72623;51.184;7.176;2023-11-21T12:00:07;16.43;;;7.53;;
11982;SDS011;72623;51.184;7.176;2023-11-21T12:02:36;19.83;;;8.80;;
11982;SDS011;72623;51.184;7.176;2023-11-21T12:05:11;22.67;;;9.27;;
11982;SDS011;72623;51.184;7.176;2023-11-21T12:07:41;19.53;;;8.83;;
11982;SDS011;72623;51.184;7.176;2023-11-21T12:10:15;19.07;;;7.80;;
11982;SDS011;72623;51.184;7.176;2023-11-21T12:12:51;17.40;;;8.30;;
11982;SDS011;72623;51.184;7.176;2023-11-21T12:15:21;20.17;;;8.17;;
11982;SDS011;72623;51.184;7.176;2023-11-21T12:17:48;20.53;;;8.10;;
11982;SDS011;72623;51.184;7.176;2023-11-21T12:20:18;18.37;;;7.80;;
11982;SDS011;72623;51.184;7.176;2023-11-21T12:22:47;16.80;;;7.23;;
11982;SDS011;72623;51.184;7.176;2023-11-21T12:25:24;21.40;;;7.57;;
11982;SDS011;72623;51.184;7.176;2023-11-21T12:27:56;16.63;;;7.20;;
11982;SDS011;72623;51.184;7.176;2023-11-21T12:30:25;14.97;;;8.53;;
11982;SDS011;72623;51.184;7.176;2023-11-21T12:32:56;14.20;;;6.53;;
11982;SDS011;72623;51.184;7.176;2023-11-21T12:35:30;21.23;;;8.00;;
11982;SDS011;72623;51.184;7.176;2023-11-21T12:37:59;17.27;;;6.83;;
11982;SDS011;72623;51.184;7.176;2023-11-21T12:40:27;18.00;;;7.00;;
11982;SDS011;72623;51.184;7.176;2023-11-21T12:42:56;17.93;;;7.67;;
11982;SDS011;72623;51.184;7.176;2023-11-21T12:45:24;25.33;;;10.73;;
11982;SDS011;72623;51.184;7.176;2023-11-21T12:48:05;22.27;;;8.27;;
11982;SDS011;72623;51.184;7.176;2023-11-21T12:50:33;18.83;;;7.87;;
11982;SDS011;72623;51.184;7.176;2023-11-21T12:53:03;18.50;;;8.60;;
11982;SDS011;72623;51.184;7.176;2023-11-21T12:55:31;19.77;;;8.33;;
11982;SDS011;72623;51.184;7.176;2023-11-21T12:58:02;19.30;;;9.37;;
11982;SDS011;72623;51.184;7.176;2023-11-21T13:00:39;20.70;;;9.33;;
11982;SDS011;72623;51.184;7.176;2023-11-21T13:03:11;21.57;;;9.73;;
11982;SDS011;72623;51.184;7.176;2023-11-21T13:05:42;21.73;;;10.60;;
11982;SDS011;72623;51.184;7.176;2023-11-21T13:08:11;23.40;;;9.83;;
11982;SDS011;72623;51.184;7.176;2023-11-21T13:10:39;20.77;;;9.10;;
11982;SDS011;72623;51.184;7.176;2023-11-21T13:13:10;23.30;;;9.63;;
11982;SDS011;72623;51.184;7.176;2023-11-21T13:15:47;28.97;;;10.83;;
11982;SDS011;72623;51.184;7.176;2023-11-21T13:18:15;25.87;;;11.13;;
11982;SDS011;72623;51.184;7.176;2023-11-21T13:20:42;35.70;;;13.50;;
11982;SDS011;72623;51.184;7.176;2023-11-21T13:23:10;29.60;;;11.47;;
11982;SDS011;72623;51.184;7.176;2023-11-21T13:25:38;29.47;;;12.40;;
11982;SDS011;72623;51.184;7.176;2023-11-21T13:28:06;26.37;;;11.80;;
11982;SDS011;72623;51.184;7.176;2023-11-21T13:30:33;34.90;;;13.00;;
11982;SDS011;72623;51.184;7.176;2023-11-21T13:33:02;30.20;;;12.83;;
11982;SDS011;72623;51.184;7.176;2023-11-21T13:35:31;33.97;;;14.47;;
11982;SDS011;72623;51.184;7.176;2023-11-21T13:38:09;33.43;;;13.83;;
11982;SDS011;72623;51.184;7.176;2023-11-21T13:40:38;34.63;;;13.60;;
11982;SDS011;72623;51.184;7.176;2023-11-21T13:43:10;40.93;;;14.00;;
11982;SDS011;72623;51.184;7.176;2023-11-21T13:45:38;34.83;;;13.77;;
11982;SDS011;72623;51.184;7.176;2023-11-21T13:48:07;34.90;;;15.40;;
11982;SDS011;72623;51.184;7.176;2023-11-21T13:50:38;46.20;;;16.27;;
11982;SDS011;72623;51.184;7.176;2023-11-21T13:53:13;38.40;;;15.00;;
11982;SDS011;72623;51.184;7.176;2023-11-21T13:55:46;37.73;;;16.53;;
11982;SDS011;72623;51.184;7.176;2023-11-21T13:58:14;37.70;;;14.57;;
11982;SDS011;72623;51.184;7.176;2023-11-21T14:00:47;34.77;;;13.60;;
11982;SDS011;72623;51.184;7.176;2023-11-21T14:03:21;28.07;;;12.43;;
11982;SDS011;72623;51.184;7.176;2023-11-21T14:05:50;30.50;;;12.47;;
11982;SDS011;72623;51.184;7.176;2023-11-21T14:08:20;29.13;;;12.50;;
11982;SDS011;72623;51.184;7.176;2023-11-21T14:10:49;30.33;;;13.90;;
11982;SDS011;72623;51.184;7.176;2023-11-21T14:13:20;31.30;;;14.83;;
11982;SDS011;72623;51.184;7.176;2023-11-21T14:15:48;32.07;;;14.27;;
11982;SDS011;72623;51.184;7.176;2023-11-21T14:18:17;32.07;;;15.27;;
11982;SDS011;72623;51.184;7.176;2023-11-21T14:20:52;26.10;;;14.33;;
11982;SDS011;72623;51.184;7.176;2023-11-21T14:23:19;21.07;;;12.13;;
11982;SDS011;72623;51.184;7.176;2023-11-21T14:25:46;19.93;;;11.00;;
11982;SDS011;72623;51.184;7.176;2023-11-21T14:28:13;23.90;;;11.33;;
11982;SDS011;72623;51.184;7.176;2023-11-21T14:30:40;16.73;;;9.17;;
11982;SDS011;72623;51.184;7.176;2023-11-21T14:33:07;17.63;;;10.97;;
11982;SDS011;72623;51.184;7.176;2023-11-21T14:35:36;19.83;;;10.67;;
11982;SDS011;72623;51.184;7.176;2023-11-21T14:38:03;20.50;;;12.07;;
11982;SDS011;72623;51.184;7.176;2023-11-21T14:40:31;21.20;;;11.97;;
11982;SDS011;72623;51.184;7.176;2023-11-21T14:43:00;28.10;;;12.97;;
11982;SDS011;72623;51.184;7.176;2023-11-21T14:45:30;66.83;;;13.70;;
11982;SDS011;72623;51.184;7.176;2023-11-21T14:47:57;21.47;;;12.43;;